createdAt,value
2018-02-25T00:00:55.167Z,1023.11
2018-02-25T00:01:55.099Z,1023.14
2018-02-25T00:02:55.188Z,1023.20
2018-02-25T00:03:55.104Z,1023.17
2018-02-25T00:04:55.112Z,1023.14
2018-02-25T00:05:55.107Z,1023.18
2018-02-25T00:06:55.112Z,1023.16
2018-02-25T00:07:55.118Z,1023.14
2018-02-25T00:08:55.121Z,1023.13
2018-02-25T00:09:55.106Z,1023.22
2018-02-25T00:10:55.112Z,1023.15
2018-02-25T00:11:55.111Z,1023.18
2018-02-25T00:12:55.123Z,1023.13
2018-02-25T00:13:55.115Z,1023.21
2018-02-25T00:14:56.151Z,1023.14
2018-02-25T00:15:55.121Z,1023.13
2018-02-25T00:16:55.120Z,1023.11
2018-02-25T00:17:55.121Z,1023.12
2018-02-25T00:18:55.128Z,1023.17
2018-02-25T00:19:55.120Z,1023.12
2018-02-25T00:20:55.125Z,1023.22
2018-02-25T00:21:55.117Z,1023.18
2018-02-25T00:22:55.124Z,1023.12
2018-02-25T00:23:55.120Z,1023.14
2018-02-25T00:24:55.165Z,1023.17
2018-02-25T00:25:55.128Z,1023.17
2018-02-25T00:26:55.137Z,1023.16
2018-02-25T00:27:55.135Z,1023.14
2018-02-25T00:28:55.133Z,1023.13
2018-02-25T00:29:55.126Z,1023.13
2018-02-25T00:30:55.140Z,1023.16
2018-02-25T00:31:55.133Z,1023.11
2018-02-25T00:32:55.141Z,1023.22
2018-02-25T00:33:55.145Z,1023.15
2018-02-25T00:34:55.132Z,1023.12
2018-02-25T00:35:55.131Z,1023.11
2018-02-25T00:36:55.137Z,1023.11
2018-02-25T00:37:55.134Z,1023.13
2018-02-25T00:38:55.139Z,1023.12
2018-02-25T00:39:55.140Z,1023.18
2018-02-25T00:40:55.144Z,1023.11
2018-02-25T00:41:55.139Z,1023.16
2018-02-25T00:42:55.143Z,1023.18
2018-02-25T00:43:55.141Z,1023.21
2018-02-25T00:44:55.149Z,1023.17
2018-02-25T00:45:55.144Z,1023.21
2018-02-25T00:46:55.178Z,1023.17
2018-02-25T00:47:55.141Z,1023.23
2018-02-25T00:48:56.150Z,1023.24
2018-02-25T00:49:55.150Z,1023.27
2018-02-25T00:50:55.149Z,1023.26
2018-02-25T00:51:55.147Z,1023.23
2018-02-25T00:52:56.172Z,1023.23
2018-02-25T00:53:55.162Z,1023.24
2018-02-25T00:54:55.160Z,1023.21
2018-02-25T00:55:55.153Z,1023.20
2018-02-25T00:56:55.179Z,1023.16
2018-02-25T00:57:55.150Z,1023.18
2018-02-25T00:58:55.155Z,1023.16
2018-02-25T00:59:55.149Z,1023.20
2018-02-25T01:00:55.153Z,1023.21
2018-02-25T01:01:55.171Z,1023.19
2018-02-25T01:02:55.167Z,1023.22
2018-02-25T01:03:55.154Z,1023.21
2018-02-25T01:04:55.181Z,1023.21
2018-02-25T01:05:55.157Z,1023.24
2018-02-25T01:06:55.162Z,1023.23
2018-02-25T01:07:55.167Z,1023.19
2018-02-25T01:08:55.161Z,1023.20
2018-02-25T01:09:55.161Z,1023.17
2018-02-25T01:10:55.176Z,1023.14
2018-02-25T01:11:55.161Z,1023.17
2018-02-25T01:12:55.179Z,1023.22
2018-02-25T01:13:55.167Z,1023.17
2018-02-25T01:14:55.175Z,1023.24
2018-02-25T01:15:55.164Z,1023.29
2018-02-25T01:16:55.166Z,1023.33
2018-02-25T01:17:55.164Z,1023.33
2018-02-25T01:18:55.178Z,1023.36
2018-02-25T01:19:55.167Z,1023.33
2018-02-25T01:20:55.170Z,1023.31
2018-02-25T01:21:55.173Z,1023.32
2018-02-25T01:22:55.169Z,1023.38
2018-02-25T01:23:55.209Z,1023.39
2018-02-25T01:24:55.174Z,1023.40
2018-02-25T01:25:55.174Z,1023.37
2018-02-25T01:26:55.196Z,1023.36
2018-02-25T01:27:55.183Z,1023.39
2018-02-25T01:28:55.176Z,1023.37
2018-02-25T01:29:55.179Z,1023.40
2018-02-25T01:30:55.186Z,1023.42
2018-02-25T01:31:55.185Z,1023.36
2018-02-25T01:32:55.195Z,1023.47
2018-02-25T01:33:55.180Z,1023.50
2018-02-25T01:34:55.183Z,1023.43
2018-02-25T01:35:55.179Z,1023.45
2018-02-25T01:36:55.184Z,1023.44
2018-02-25T01:37:55.182Z,1023.45
2018-02-25T01:38:55.184Z,1023.45
2018-02-25T01:39:55.188Z,1023.44
2018-02-25T01:40:55.187Z,1023.43
2018-02-25T01:41:55.186Z,1023.49
2018-02-25T01:42:55.191Z,1023.48
2018-02-25T01:43:55.204Z,1023.50
2018-02-25T01:44:55.189Z,1023.47
2018-02-25T01:45:55.186Z,1023.47
2018-02-25T01:46:55.192Z,1023.48
2018-02-25T01:47:55.185Z,1023.50
2018-02-25T01:48:55.192Z,1023.54
2018-02-25T01:49:55.181Z,1023.53
2018-02-25T01:50:55.217Z,1023.51
2018-02-25T01:51:55.187Z,1023.47
2018-02-25T01:52:55.195Z,1023.42
2018-02-25T01:53:55.208Z,1023.46
2018-02-25T01:54:55.199Z,1023.43
2018-02-25T01:55:55.190Z,1023.39
2018-02-25T01:56:55.204Z,1023.36
2018-02-25T01:57:55.217Z,1023.37
2018-02-25T01:58:57.211Z,1023.45
2018-02-25T01:59:55.197Z,1023.44
2018-02-25T02:00:59.863Z,1023.43
2018-02-25T02:01:55.217Z,1023.37
2018-02-25T02:02:55.193Z,1023.40
2018-02-25T02:03:55.195Z,1023.38
2018-02-25T02:04:55.204Z,1023.40
2018-02-25T02:05:55.201Z,1023.32
2018-02-25T02:06:55.211Z,1023.34
2018-02-25T02:07:55.192Z,1023.34
2018-02-25T02:08:55.196Z,1023.38
2018-02-25T02:09:55.203Z,1023.39
2018-02-25T02:10:55.202Z,1023.38
2018-02-25T02:11:55.209Z,1023.34
2018-02-25T02:12:56.203Z,1023.29
2018-02-25T02:13:55.224Z,1023.27
2018-02-25T02:14:55.213Z,1023.33
2018-02-25T02:15:55.202Z,1023.32
2018-02-25T02:16:55.206Z,1023.34
2018-02-25T02:17:55.213Z,1023.35
2018-02-25T02:18:55.205Z,1023.31
2018-02-25T02:19:55.203Z,1023.35
2018-02-25T02:20:55.209Z,1023.39
2018-02-25T02:21:55.206Z,1023.33
2018-02-25T02:22:55.214Z,1023.32
2018-02-25T02:23:55.205Z,1023.33
2018-02-25T02:24:55.225Z,1023.39
2018-02-25T02:25:55.204Z,1023.33
2018-02-25T02:26:55.210Z,1023.40
2018-02-25T02:27:55.217Z,1023.32
2018-02-25T02:28:55.224Z,1023.33
2018-02-25T02:29:55.233Z,1023.39
2018-02-25T02:30:55.213Z,1023.38
2018-02-25T02:31:55.223Z,1023.37
2018-02-25T02:32:55.222Z,1023.37
2018-02-25T02:33:55.235Z,1023.34
2018-02-25T02:34:55.212Z,1023.38
2018-02-25T02:35:55.222Z,1023.34
2018-02-25T02:36:55.212Z,1023.34
2018-02-25T02:37:55.232Z,1023.37
2018-02-25T02:38:55.213Z,1023.34
2018-02-25T02:39:55.265Z,1023.28
2018-02-25T02:40:55.216Z,1023.28
2018-02-25T02:41:55.239Z,1023.34
2018-02-25T02:42:55.214Z,1023.34
2018-02-25T02:43:56.874Z,1023.28
2018-02-25T02:44:55.231Z,1023.29
2018-02-25T02:45:55.216Z,1023.30
2018-02-25T02:46:55.220Z,1023.24
2018-02-25T02:47:55.231Z,1023.26
2018-02-25T02:48:55.232Z,1023.27
2018-02-25T02:49:55.218Z,1023.28
2018-02-25T02:50:55.289Z,1023.26
2018-02-25T02:51:55.237Z,1023.30
2018-02-25T02:52:55.226Z,1023.32
2018-02-25T02:53:55.217Z,1023.29
2018-02-25T02:54:55.227Z,1023.30
2018-02-25T02:55:55.237Z,1023.29
2018-02-25T02:56:55.224Z,1023.29
2018-02-25T02:57:55.224Z,1023.36
2018-02-25T02:58:55.233Z,1023.34
2018-02-25T02:59:55.231Z,1023.35
2018-02-25T03:00:55.224Z,1023.41
2018-02-25T03:01:55.224Z,1023.37
2018-02-25T03:02:55.227Z,1023.42
2018-02-25T03:03:55.220Z,1023.45
2018-02-25T03:04:55.223Z,1023.42
2018-02-25T03:05:55.228Z,1023.47
2018-02-25T03:06:55.252Z,1023.44
2018-02-25T03:07:55.226Z,1023.54
2018-02-25T03:08:55.236Z,1023.46
2018-02-25T03:09:55.220Z,1023.50
2018-02-25T03:10:55.225Z,1023.54
2018-02-25T03:11:55.227Z,1023.49
2018-02-25T03:12:55.239Z,1023.54
2018-02-25T03:13:55.226Z,1023.57
2018-02-25T03:14:55.230Z,1023.54
2018-02-25T03:15:55.228Z,1023.61
2018-02-25T03:16:55.231Z,1023.56
2018-02-25T03:17:55.223Z,1023.57
2018-02-25T03:18:55.229Z,1023.60
2018-02-25T03:19:55.238Z,1023.56
2018-02-25T03:20:55.236Z,1023.57
2018-02-25T03:21:55.225Z,1023.68
2018-02-25T03:22:55.228Z,1023.62
2018-02-25T03:23:55.230Z,1023.60
2018-02-25T03:24:55.251Z,1023.63
2018-02-25T03:25:55.225Z,1023.74
2018-02-25T03:26:55.236Z,1023.68
2018-02-25T03:27:55.235Z,1023.69
2018-02-25T03:28:56.248Z,1023.73
2018-02-25T03:29:56.921Z,1023.74
2018-02-25T03:30:56.234Z,1023.73
2018-02-25T03:31:55.237Z,1023.79
2018-02-25T03:32:55.238Z,1023.79
2018-02-25T03:33:55.228Z,1023.78
2018-02-25T03:34:57.254Z,1023.80
2018-02-25T03:35:55.235Z,1023.81
2018-02-25T03:36:55.245Z,1023.81
2018-02-25T03:37:55.245Z,1023.84
2018-02-25T03:38:55.236Z,1023.89
2018-02-25T03:39:55.232Z,1023.87
2018-02-25T03:40:55.239Z,1023.88
2018-02-25T03:41:55.232Z,1023.92
2018-02-25T03:42:55.233Z,1023.88
2018-02-25T03:43:55.231Z,1023.92
2018-02-25T03:44:55.268Z,1023.92
2018-02-25T03:45:55.230Z,1023.91
2018-02-25T03:46:55.253Z,1023.94
2018-02-25T03:47:55.241Z,1023.94
2018-02-25T03:48:55.239Z,1024.02
2018-02-25T03:49:55.248Z,1023.95
2018-02-25T03:50:55.242Z,1024.01
2018-02-25T03:51:55.246Z,1023.93
2018-02-25T03:52:55.272Z,1023.95
2018-02-25T03:53:55.238Z,1023.95
2018-02-25T03:54:55.234Z,1023.97
2018-02-25T03:55:55.235Z,1024.02
2018-02-25T03:56:55.246Z,1023.97
2018-02-25T03:57:55.247Z,1023.97
2018-02-25T03:58:55.258Z,1023.94
2018-02-25T03:59:55.238Z,1024.00
2018-02-25T04:00:55.241Z,1023.96
2018-02-25T04:01:55.247Z,1023.95
2018-02-25T04:02:55.249Z,1024.01
2018-02-25T04:03:55.243Z,1023.99
2018-02-25T04:04:55.242Z,1024.04
2018-02-25T04:05:55.237Z,1024.01
2018-02-25T04:06:55.260Z,1024.04
2018-02-25T04:07:55.242Z,1024.08
2018-02-25T04:08:55.238Z,1024.06
2018-02-25T04:09:55.238Z,1024.09
2018-02-25T04:10:55.258Z,1024.07
2018-02-25T04:11:55.264Z,1024.06
2018-02-25T04:12:55.242Z,1024.16
2018-02-25T04:13:55.248Z,1024.08
2018-02-25T04:14:56.239Z,1024.17
2018-02-25T04:15:55.238Z,1024.11
2018-02-25T04:16:55.245Z,1024.10
2018-02-25T04:17:55.230Z,1024.11
2018-02-25T04:18:55.239Z,1024.08
2018-02-25T04:19:55.238Z,1024.07
2018-02-25T04:20:55.281Z,1024.07
2018-02-25T04:21:55.234Z,1024.12
2018-02-25T04:22:55.241Z,1024.17
2018-02-25T04:23:55.245Z,1024.19
2018-02-25T04:24:56.249Z,1024.14
2018-02-25T04:25:55.240Z,1024.16
2018-02-25T04:26:56.244Z,1024.18
2018-02-25T04:27:55.241Z,1024.15
2018-02-25T04:28:55.254Z,1024.18
2018-02-25T04:29:55.238Z,1024.16
2018-02-25T04:30:55.242Z,1024.22
2018-02-25T04:31:55.245Z,1024.17
2018-02-25T04:32:55.261Z,1024.14
2018-02-25T04:33:55.240Z,1024.14
2018-02-25T04:34:55.242Z,1024.22
2018-02-25T04:35:55.237Z,1024.19
2018-02-25T04:36:55.884Z,1024.30
2018-02-25T04:37:55.247Z,1024.24
2018-02-25T04:38:55.248Z,1024.28
2018-02-25T04:39:55.244Z,1024.27
2018-02-25T04:40:55.252Z,1024.31
2018-02-25T04:41:55.234Z,1024.25
2018-02-25T04:42:55.316Z,1024.26
2018-02-25T04:43:55.244Z,1024.18
2018-02-25T04:44:55.241Z,1024.22
2018-02-25T04:45:55.243Z,1024.23
2018-02-25T04:46:55.263Z,1024.19
2018-02-25T04:47:55.248Z,1024.20
2018-02-25T04:48:55.251Z,1024.18
2018-02-25T04:49:55.243Z,1024.19
2018-02-25T04:50:55.239Z,1024.23
2018-02-25T04:51:55.240Z,1024.15
2018-02-25T04:52:55.252Z,1024.17
2018-02-25T04:53:55.244Z,1024.17
2018-02-25T04:54:55.241Z,1024.21
2018-02-25T04:55:55.247Z,1024.16
2018-02-25T04:56:55.244Z,1024.16
2018-02-25T04:57:55.238Z,1024.17
2018-02-25T04:58:55.247Z,1024.16
2018-02-25T04:59:55.247Z,1024.19
2018-02-25T05:00:56.237Z,1024.13
2018-02-25T05:01:55.251Z,1024.09
2018-02-25T05:02:55.254Z,1024.14
2018-02-25T05:03:55.256Z,1024.10
2018-02-25T05:04:55.240Z,1024.07
2018-02-25T05:05:55.233Z,1024.04
2018-02-25T05:06:55.239Z,1024.09
2018-02-25T05:07:55.253Z,1024.08
2018-02-25T05:08:55.250Z,1024.07
2018-02-25T05:09:55.240Z,1024.04
2018-02-25T05:10:55.259Z,1024.06
2018-02-25T05:11:55.240Z,1024.11
2018-02-25T05:12:55.255Z,1024.01
2018-02-25T05:13:55.241Z,1024.04
2018-02-25T05:14:55.238Z,1024.12
2018-02-25T05:15:55.241Z,1024.07
2018-02-25T05:16:55.246Z,1024.12
2018-02-25T05:17:55.240Z,1024.18
2018-02-25T05:18:55.248Z,1024.11
2018-02-25T05:19:55.234Z,1024.11
2018-02-25T05:20:55.244Z,1024.15
2018-02-25T05:21:55.236Z,1024.12
2018-02-25T05:22:55.246Z,1024.14
2018-02-25T05:23:55.233Z,1024.06
2018-02-25T05:24:55.300Z,1024.10
2018-02-25T05:25:55.231Z,1024.10
2018-02-25T05:26:55.280Z,1024.10
2018-02-25T05:27:55.235Z,1024.10
2018-02-25T05:28:55.283Z,1024.09
2018-02-25T05:29:55.240Z,1024.15
2018-02-25T05:30:55.240Z,1024.14
2018-02-25T05:31:55.231Z,1024.19
2018-02-25T05:32:55.263Z,1024.13
2018-02-25T05:33:55.227Z,1024.15
2018-02-25T05:34:55.238Z,1024.14
2018-02-25T05:35:55.247Z,1024.15
2018-02-25T05:36:55.236Z,1024.07
2018-02-25T05:37:55.229Z,1024.15
2018-02-25T05:38:55.235Z,1024.18
2018-02-25T05:39:55.236Z,1024.10
2018-02-25T05:40:56.253Z,1024.12
2018-02-25T05:41:55.233Z,1024.15
2018-02-25T05:42:55.230Z,1024.12
2018-02-25T05:43:55.232Z,1024.18
2018-02-25T05:44:55.241Z,1024.17
2018-02-25T05:45:55.237Z,1024.18
2018-02-25T05:46:55.234Z,1024.15
2018-02-25T05:47:55.230Z,1024.21
2018-02-25T05:48:55.238Z,1024.18
2018-02-25T05:49:55.223Z,1024.20
2018-02-25T05:50:55.234Z,1024.22
2018-02-25T05:51:55.228Z,1024.24
2018-02-25T05:52:55.268Z,1024.24
2018-02-25T05:53:55.224Z,1024.25
2018-02-25T05:54:55.235Z,1024.23
2018-02-25T05:55:55.232Z,1024.24
2018-02-25T05:56:55.240Z,1024.26
2018-02-25T05:57:55.236Z,1024.29
2018-02-25T05:58:55.231Z,1024.23
2018-02-25T05:59:55.241Z,1024.27
2018-02-25T06:00:56.260Z,1024.23
2018-02-25T06:01:55.229Z,1024.21
2018-02-25T06:02:56.233Z,1024.25
2018-02-25T06:03:55.227Z,1024.34
2018-02-25T06:04:55.239Z,1024.29
2018-02-25T06:05:55.233Z,1024.26
2018-02-25T06:06:55.233Z,1024.30
2018-02-25T06:07:55.227Z,1024.30
2018-02-25T06:08:55.261Z,1024.30
2018-02-25T06:09:55.234Z,1024.33
2018-02-25T06:10:55.264Z,1024.29
2018-02-25T06:11:55.222Z,1024.33
2018-02-25T06:12:55.247Z,1024.32
2018-02-25T06:13:55.224Z,1024.35
2018-02-25T06:14:55.235Z,1024.37
2018-02-25T06:15:55.236Z,1024.36
2018-02-25T06:16:55.224Z,1024.37
2018-02-25T06:17:55.233Z,1024.36
2018-02-25T06:18:55.230Z,1024.43
2018-02-25T06:19:55.221Z,1024.38
2018-02-25T06:20:55.249Z,1024.42
2018-02-25T06:21:55.228Z,1024.43
2018-02-25T06:22:56.235Z,1024.41
2018-02-25T06:23:55.231Z,1024.40
2018-02-25T06:24:55.294Z,1024.41
2018-02-25T06:25:55.228Z,1024.47
2018-02-25T06:26:55.231Z,1024.50
2018-02-25T06:27:55.219Z,1024.45
2018-02-25T06:28:55.247Z,1024.46
2018-02-25T06:29:55.221Z,1024.49
2018-02-25T06:30:55.229Z,1024.52
2018-02-25T06:31:55.217Z,1024.53
2018-02-25T06:32:55.230Z,1024.57
2018-02-25T06:33:55.220Z,1024.58
2018-02-25T06:34:55.227Z,1024.53
2018-02-25T06:35:55.215Z,1024.56
2018-02-25T06:36:56.221Z,1024.51
2018-02-25T06:37:55.216Z,1024.52
2018-02-25T06:38:55.257Z,1024.57
2018-02-25T06:39:55.217Z,1024.54
2018-02-25T06:40:55.215Z,1024.52
2018-02-25T06:41:55.211Z,1024.53
2018-02-25T06:42:55.214Z,1024.53
2018-02-25T06:43:55.211Z,1024.56
2018-02-25T06:44:55.219Z,1024.55
2018-02-25T06:45:55.212Z,1024.56
2018-02-25T06:46:55.217Z,1024.54
2018-02-25T06:47:55.220Z,1024.54
2018-02-25T06:48:55.239Z,1024.54
2018-02-25T06:49:55.209Z,1024.53
2018-02-25T06:50:55.214Z,1024.57
2018-02-25T06:51:55.209Z,1024.53
2018-02-25T06:52:55.215Z,1024.52
2018-02-25T06:53:55.216Z,1024.63
2018-02-25T06:54:55.284Z,1024.53
2018-02-25T06:55:55.238Z,1024.57
2018-02-25T06:56:55.224Z,1024.59
2018-02-25T06:57:55.210Z,1024.57
2018-02-25T06:58:55.219Z,1024.59
2018-02-25T06:59:55.209Z,1024.62
2018-02-25T07:00:55.209Z,1024.60
2018-02-25T07:01:55.219Z,1024.63
2018-02-25T07:02:55.228Z,1024.72
2018-02-25T07:03:55.231Z,1024.64
2018-02-25T07:04:55.215Z,1024.64
2018-02-25T07:05:55.221Z,1024.64
2018-02-25T07:06:55.226Z,1024.67
2018-02-25T07:07:55.253Z,1024.66
2018-02-25T07:08:55.203Z,1024.69
2018-02-25T07:09:55.213Z,1024.65
2018-02-25T07:10:55.218Z,1024.69
2018-02-25T07:11:55.197Z,1024.78
2018-02-25T07:12:55.229Z,1024.75
2018-02-25T07:13:55.195Z,1024.68
2018-02-25T07:14:55.215Z,1024.67
2018-02-25T07:15:55.198Z,1024.68
2018-02-25T07:16:55.205Z,1024.75
2018-02-25T07:17:55.200Z,1024.71
2018-02-25T07:18:55.205Z,1024.74
2018-02-25T07:19:55.199Z,1024.76
2018-02-25T07:20:55.263Z,1024.77
2018-02-25T07:21:55.195Z,1024.75
2018-02-25T07:22:55.197Z,1024.88
2018-02-25T07:23:55.195Z,1024.80
2018-02-25T07:24:55.215Z,1024.82
2018-02-25T07:25:55.196Z,1024.82
2018-02-25T07:26:55.228Z,1024.79
2018-02-25T07:27:55.205Z,1024.79
2018-02-25T07:28:56.254Z,1024.82
2018-02-25T07:29:55.195Z,1024.84
2018-02-25T07:30:55.243Z,1024.86
2018-02-25T07:31:55.204Z,1024.83
2018-02-25T07:32:55.363Z,1024.87
2018-02-25T07:33:55.192Z,1024.81
2018-02-25T07:34:55.363Z,1024.92
2018-02-25T07:35:55.195Z,1024.89
2018-02-25T07:36:55.387Z,1024.88
2018-02-25T07:37:55.194Z,1024.97
2018-02-25T07:38:55.411Z,1024.91
2018-02-25T07:39:55.193Z,1024.93
2018-02-25T07:40:55.311Z,1024.89
2018-02-25T07:41:55.190Z,1024.84
2018-02-25T07:42:55.326Z,1024.81
2018-02-25T07:43:55.195Z,1024.86
2018-02-25T07:44:55.343Z,1024.83
2018-02-25T07:45:55.195Z,1024.86
2018-02-25T07:46:55.355Z,1024.83
2018-02-25T07:47:55.185Z,1024.88
2018-02-25T07:48:55.365Z,1024.90
2018-02-25T07:49:55.184Z,1024.86
2018-02-25T07:50:55.385Z,1024.91
2018-02-25T07:51:55.200Z,1024.87
2018-02-25T07:52:55.392Z,1024.92
2018-02-25T07:53:55.192Z,1024.91
2018-02-25T07:54:55.336Z,1024.91
2018-02-25T07:55:55.187Z,1024.90
2018-02-25T07:56:55.317Z,1024.93
2018-02-25T07:57:55.178Z,1024.96
2018-02-25T07:58:55.188Z,1024.94
2018-02-25T07:59:55.181Z,1024.96
2018-02-25T08:00:55.182Z,1024.99
2018-02-25T08:01:55.250Z,1025.04
2018-02-25T08:02:55.179Z,1024.99
2018-02-25T08:03:55.174Z,1025.05
2018-02-25T08:04:55.172Z,1025.06
2018-02-25T08:05:55.172Z,1024.98
2018-02-25T08:06:55.281Z,1024.99
2018-02-25T08:07:55.172Z,1025.01
2018-02-25T08:08:55.309Z,1025.02
2018-02-25T08:09:55.167Z,1024.99
2018-02-25T08:10:55.370Z,1025.03
2018-02-25T08:11:55.168Z,1025.06
2018-02-25T08:12:55.270Z,1025.07
2018-02-25T08:13:55.174Z,1025.03
2018-02-25T08:14:55.287Z,1025.06
2018-02-25T08:15:55.161Z,1025.16
2018-02-25T08:16:55.303Z,1025.09
2018-02-25T08:17:55.171Z,1025.09
2018-02-25T08:18:55.311Z,1025.04
2018-02-25T08:19:55.177Z,1025.08
2018-02-25T08:20:55.330Z,1025.07
2018-02-25T08:21:55.169Z,1025.10
2018-02-25T08:22:55.363Z,1025.06
2018-02-25T08:23:55.229Z,1025.10
2018-02-25T08:24:55.188Z,1025.09
2018-02-25T08:25:55.161Z,1025.06
2018-02-25T08:26:55.161Z,1025.05
2018-02-25T08:27:55.171Z,1025.10
2018-02-25T08:28:55.304Z,1025.14
2018-02-25T08:29:55.176Z,1025.12
2018-02-25T08:30:55.314Z,1025.15
2018-02-25T08:31:55.176Z,1025.17
2018-02-25T08:32:55.641Z,1025.18
2018-02-25T08:33:55.162Z,1025.17
2018-02-25T08:34:55.154Z,1025.22
2018-02-25T08:35:55.175Z,1025.25
2018-02-25T08:36:55.191Z,1025.19
2018-02-25T08:37:55.166Z,1025.19
2018-02-25T08:38:55.156Z,1025.24
2018-02-25T08:39:55.159Z,1025.27
2018-02-25T08:40:55.149Z,1025.23
2018-02-25T08:41:55.179Z,1025.23
2018-02-25T08:42:55.157Z,1025.31
2018-02-25T08:43:55.160Z,1025.24
2018-02-25T08:44:55.285Z,1025.28
2018-02-25T08:45:55.165Z,1025.23
2018-02-25T08:46:55.299Z,1025.29
2018-02-25T08:47:55.152Z,1025.26
2018-02-25T08:48:55.311Z,1025.24
2018-02-25T08:49:55.150Z,1025.24
2018-02-25T08:50:55.157Z,1025.25
2018-02-25T08:51:55.336Z,1025.32
2018-02-25T08:52:55.148Z,1025.35
2018-02-25T08:53:55.160Z,1025.33
2018-02-25T08:54:55.248Z,1025.27
2018-02-25T08:55:55.167Z,1025.34
2018-02-25T08:56:55.261Z,1025.26
2018-02-25T08:57:55.186Z,1025.27
2018-02-25T08:58:55.392Z,1025.23
2018-02-25T08:59:55.148Z,1025.17
2018-02-25T09:00:55.293Z,1025.19
2018-02-25T09:01:55.164Z,1025.17
2018-02-25T09:02:55.310Z,1025.14
2018-02-25T09:03:55.170Z,1025.14
2018-02-25T09:04:55.320Z,1025.20
2018-02-25T09:05:55.144Z,1025.20
2018-02-25T09:06:55.329Z,1025.20
2018-02-25T09:07:55.168Z,1025.23
2018-02-25T09:08:55.340Z,1025.21
2018-02-25T09:09:55.149Z,1025.17
2018-02-25T09:10:55.145Z,1025.19
2018-02-25T09:11:55.258Z,1025.21
2018-02-25T09:12:55.145Z,1025.17
2018-02-25T09:13:55.297Z,1025.15
2018-02-25T09:14:55.147Z,1025.13
2018-02-25T09:15:55.156Z,1025.11
2018-02-25T09:16:55.318Z,1025.16
2018-02-25T09:17:55.149Z,1025.10
2018-02-25T09:18:55.149Z,1025.13
2018-02-25T09:19:55.320Z,1025.17
2018-02-25T09:20:55.136Z,1025.09
2018-02-25T09:21:55.155Z,1025.07
2018-02-25T09:22:55.368Z,1025.13
2018-02-25T09:23:55.138Z,1025.19
2018-02-25T09:24:55.263Z,1025.17
2018-02-25T09:25:55.145Z,1025.12
2018-02-25T09:26:55.266Z,1025.17
2018-02-25T09:27:55.142Z,1025.14
2018-02-25T09:28:55.280Z,1025.18
2018-02-25T09:29:55.143Z,1025.05
2018-02-25T09:30:55.157Z,1025.18
2018-02-25T09:31:55.297Z,1025.09
2018-02-25T09:32:55.133Z,1025.09
2018-02-25T09:33:55.161Z,1025.04
2018-02-25T09:34:55.327Z,1025.13
2018-02-25T09:35:55.176Z,1025.02
2018-02-25T09:36:55.153Z,1025.08
2018-02-25T09:37:55.334Z,1025.06
2018-02-25T09:38:55.152Z,1025.10
2018-02-25T09:39:55.349Z,1025.17
2018-02-25T09:40:55.137Z,1025.18
2018-02-25T09:41:55.197Z,1025.16
2018-02-25T09:42:55.271Z,1025.13
2018-02-25T09:43:55.140Z,1025.13
2018-02-25T09:44:55.421Z,1025.13
2018-02-25T09:45:55.136Z,1025.14
2018-02-25T09:46:55.269Z,1025.16
2018-02-25T09:47:55.140Z,1025.14
2018-02-25T09:48:55.279Z,1025.11
2018-02-25T09:49:55.138Z,1025.15
2018-02-25T09:50:56.317Z,1025.10
2018-02-25T09:51:55.138Z,1025.09
2018-02-25T09:52:55.307Z,1025.11
2018-02-25T09:53:55.146Z,1025.06
2018-02-25T09:54:55.318Z,1025.08
2018-02-25T09:55:55.164Z,1025.03
2018-02-25T09:56:55.230Z,1025.11
2018-02-25T09:57:55.142Z,1025.10
2018-02-25T09:58:55.246Z,1025.08
2018-02-25T09:59:55.143Z,1025.11
2018-02-25T10:00:55.257Z,1025.16
2018-02-25T10:01:55.146Z,1025.15
2018-02-25T10:02:55.293Z,1025.12
2018-02-25T10:03:55.148Z,1025.21
2018-02-25T10:04:55.180Z,1025.12
2018-02-25T10:05:55.293Z,1025.10
2018-02-25T10:06:55.148Z,1025.11
2018-02-25T10:07:55.336Z,1025.13
2018-02-25T10:08:55.147Z,1025.14
2018-02-25T10:09:55.319Z,1025.10
2018-02-25T10:10:55.159Z,1025.16
2018-02-25T10:11:55.336Z,1025.11
2018-02-25T10:12:55.148Z,1025.07
2018-02-25T10:13:55.155Z,1025.14
2018-02-25T10:14:55.163Z,1025.03
2018-02-25T10:15:55.151Z,1025.01
2018-02-25T10:16:55.159Z,1025.02
2018-02-25T10:17:55.159Z,1024.99
2018-02-25T10:18:55.151Z,1024.96
2018-02-25T10:19:55.284Z,1024.90
2018-02-25T10:20:55.158Z,1024.92
2018-02-25T10:21:55.307Z,1024.97
2018-02-25T10:22:55.170Z,1025.05
2018-02-25T10:23:55.161Z,1025.01
2018-02-25T10:24:55.325Z,1025.05
2018-02-25T10:25:55.157Z,1024.99
2018-02-25T10:26:55.202Z,1025.00
2018-02-25T10:27:55.345Z,1024.95
2018-02-25T10:28:55.161Z,1024.93
2018-02-25T10:29:55.352Z,1024.89
2018-02-25T10:30:55.203Z,1024.90
2018-02-25T10:31:55.161Z,1024.88
2018-02-25T10:32:55.166Z,1024.91
2018-02-25T10:33:55.281Z,1024.85
2018-02-25T10:34:55.164Z,1024.86
2018-02-25T10:35:55.171Z,1024.85
2018-02-25T10:36:55.318Z,1024.79
2018-02-25T10:37:55.162Z,1024.81
2018-02-25T10:38:55.309Z,1024.79
2018-02-25T10:39:55.172Z,1024.81
2018-02-25T10:40:55.184Z,1024.80
2018-02-25T10:41:55.329Z,1024.82
2018-02-25T10:42:55.164Z,1024.79
2018-02-25T10:43:55.183Z,1024.80
2018-02-25T10:44:55.360Z,1024.82
2018-02-25T10:45:55.171Z,1024.85
2018-02-25T10:46:55.217Z,1024.84
2018-02-25T10:47:55.373Z,1024.84
2018-02-25T10:48:55.185Z,1024.79
2018-02-25T10:49:55.391Z,1024.85
2018-02-25T10:50:55.172Z,1024.84
2018-02-25T10:51:55.302Z,1024.75
2018-02-25T10:52:55.188Z,1024.75
2018-02-25T10:53:55.318Z,1024.81
2018-02-25T10:54:55.181Z,1024.83
2018-02-25T10:55:55.331Z,1024.75
2018-02-25T10:56:55.187Z,1024.69
2018-02-25T10:57:55.195Z,1024.71
2018-02-25T10:58:55.351Z,1024.72
2018-02-25T10:59:55.189Z,1024.70
2018-02-25T11:00:55.186Z,1024.66
2018-02-25T11:01:55.364Z,1024.64
2018-02-25T11:02:55.193Z,1024.67
2018-02-25T11:03:55.381Z,1024.70
2018-02-25T11:04:55.188Z,1024.71
2018-02-25T11:05:55.202Z,1024.68
2018-02-25T11:06:55.401Z,1024.67
2018-02-25T11:07:55.266Z,1024.63
2018-02-25T11:08:55.206Z,1024.62
2018-02-25T11:09:55.319Z,1024.62
2018-02-25T11:10:55.201Z,1024.57
2018-02-25T11:11:55.332Z,1024.54
2018-02-25T11:12:55.216Z,1024.51
2018-02-25T11:13:55.210Z,1024.57
2018-02-25T11:14:55.406Z,1024.52
2018-02-25T11:15:55.216Z,1024.48
2018-02-25T11:16:55.226Z,1024.49
2018-02-25T11:17:55.387Z,1024.51
2018-02-25T11:18:55.225Z,1024.49
2018-02-25T11:19:55.258Z,1024.43
2018-02-25T11:20:56.441Z,1024.44
2018-02-25T11:21:55.211Z,1024.47
2018-02-25T11:22:55.407Z,1024.40
2018-02-25T11:23:55.216Z,1024.40
2018-02-25T11:24:55.316Z,1024.43
2018-02-25T11:25:55.231Z,1024.33
2018-02-25T11:26:55.434Z,1024.30
2018-02-25T11:27:55.223Z,1024.35
2018-02-25T11:28:55.237Z,1024.32
2018-02-25T11:29:55.275Z,1024.32
2018-02-25T11:30:55.223Z,1024.35
2018-02-25T11:31:55.256Z,1024.32
2018-02-25T11:32:55.270Z,1024.31
2018-02-25T11:33:55.231Z,1024.29
2018-02-25T11:34:55.281Z,1024.30
2018-02-25T11:35:55.241Z,1024.27
2018-02-25T11:36:55.298Z,1024.29
2018-02-25T11:37:55.244Z,1024.30
2018-02-25T11:38:55.355Z,1024.20
2018-02-25T11:39:55.302Z,1024.26
2018-02-25T11:40:55.328Z,1024.17
2018-02-25T11:41:55.251Z,1024.16
2018-02-25T11:42:55.247Z,1024.16
2018-02-25T11:43:55.342Z,1024.13
2018-02-25T11:44:55.242Z,1024.19
2018-02-25T11:45:55.260Z,1024.17
2018-02-25T11:46:55.360Z,1024.15
2018-02-25T11:47:55.252Z,1024.14
2018-02-25T11:48:55.277Z,1024.12
2018-02-25T11:49:55.382Z,1024.09
2018-02-25T11:50:55.253Z,1024.05
2018-02-25T11:51:55.260Z,1024.08
2018-02-25T11:52:55.304Z,1024.11
2018-02-25T11:53:55.270Z,1024.04
2018-02-25T11:54:55.314Z,1024.07
2018-02-25T11:55:55.267Z,1024.04
2018-02-25T11:56:55.442Z,1024.06
2018-02-25T11:57:55.270Z,1024.08
2018-02-25T11:58:55.352Z,1024.09
2018-02-25T11:59:55.300Z,1024.11
2018-02-25T12:00:55.359Z,1024.04
2018-02-25T12:01:55.273Z,1024.03
2018-02-25T12:02:55.281Z,1024.05
2018-02-25T12:03:55.377Z,1023.98
2018-02-25T12:04:55.285Z,1023.98
2018-02-25T12:05:55.292Z,1023.99